createdAt,value
2017-10-10T00:02:01.087Z,7.54
2017-10-10T00:04:30.111Z,7.41
2017-10-10T00:06:59.155Z,7.33
2017-10-10T00:09:30.500Z,7.23
2017-10-10T00:11:59.524Z,7.16
2017-10-10T00:14:28.561Z,7.07
2017-10-10T00:16:57.586Z,7.02
2017-10-10T00:19:26.763Z,7.09
2017-10-10T00:21:59.294Z,7.11
2017-10-10T00:24:28.358Z,7.11
2017-10-10T00:26:59.360Z,7.13
2017-10-10T00:29:28.385Z,7.09
2017-10-10T00:31:57.427Z,7.08
2017-10-10T00:34:26.471Z,7.10
2017-10-10T00:36:55.544Z,7.11
2017-10-10T00:39:24.576Z,7.06
2017-10-10T00:41:54.759Z,7.05
2017-10-10T00:44:23.774Z,7.03
2017-10-10T00:46:52.810Z,7.09
2017-10-10T00:49:21.844Z,7.14
2017-10-10T00:51:50.875Z,7.16
2017-10-10T00:54:20.867Z,7.22
2017-10-10T00:56:49.902Z,7.27
2017-10-10T00:59:18.948Z,7.34
2017-10-10T01:01:47.983Z,7.37
2017-10-10T01:04:17.024Z,7.35
2017-10-10T01:06:46.058Z,7.36
2017-10-10T01:09:15.092Z,7.39
2017-10-10T01:11:44.150Z,7.47
2017-10-10T01:14:13.184Z,7.50
2017-10-10T01:16:42.214Z,7.57
2017-10-10T01:19:11.255Z,7.62
2017-10-10T01:21:40.303Z,7.70
2017-10-10T01:24:09.368Z,7.77
2017-10-10T01:26:40.403Z,7.76
2017-10-10T01:29:09.456Z,7.80
2017-10-10T01:31:38.489Z,7.79
2017-10-10T01:34:08.534Z,7.76
2017-10-10T01:36:37.571Z,7.71
2017-10-10T01:39:06.608Z,7.58
2017-10-10T01:41:35.649Z,7.52
2017-10-10T01:44:04.694Z,7.46
2017-10-10T01:46:33.718Z,7.42
2017-10-10T01:49:02.764Z,7.37
2017-10-10T01:51:31.786Z,7.34
2017-10-10T01:54:00.845Z,7.37
2017-10-10T01:56:29.864Z,7.25
2017-10-10T01:58:58.887Z,7.16
2017-10-10T02:01:28.024Z,7.11
2017-10-10T02:03:57.052Z,7.07
2017-10-10T02:06:26.155Z,7.11
2017-10-10T02:08:55.205Z,7.13
2017-10-10T02:11:25.220Z,7.15
2017-10-10T02:13:54.264Z,7.13
2017-10-10T02:16:23.315Z,7.13
2017-10-10T02:18:52.378Z,7.18
2017-10-10T02:21:21.416Z,7.24
2017-10-10T02:23:50.516Z,7.31
2017-10-10T02:26:19.532Z,7.46
2017-10-10T02:28:48.586Z,7.56
2017-10-10T02:31:17.619Z,7.65
2017-10-10T02:33:46.654Z,7.80
2017-10-10T02:36:15.713Z,7.89
2017-10-10T02:38:44.736Z,7.97
2017-10-10T02:41:13.909Z,8.04
2017-10-10T02:43:42.933Z,8.11
2017-10-10T02:46:11.979Z,8.12
2017-10-10T02:48:41.015Z,8.11
2017-10-10T02:51:10.043Z,8.13
2017-10-10T02:53:39.106Z,8.11
2017-10-10T02:56:09.124Z,8.08
2017-10-10T02:58:38.319Z,8.04
2017-10-10T03:01:07.353Z,8.07
2017-10-10T03:03:36.375Z,8.07
2017-10-10T03:06:05.466Z,8.09
2017-10-10T03:08:34.489Z,8.13
2017-10-10T03:11:03.525Z,8.18
2017-10-10T03:13:32.619Z,8.19
2017-10-10T03:16:01.671Z,8.17
2017-10-10T03:18:30.726Z,8.20
2017-10-10T03:21:00.728Z,8.26
2017-10-10T03:23:29.746Z,8.29
2017-10-10T03:25:58.787Z,8.31
2017-10-10T03:28:27.843Z,8.29
2017-10-10T03:30:56.886Z,8.29
2017-10-10T03:33:25.924Z,8.31
2017-10-10T03:35:55.954Z,8.31
2017-10-10T03:38:24.999Z,8.32
2017-10-10T03:40:54.042Z,8.34
2017-10-10T03:43:25.094Z,8.42
2017-10-10T03:45:54.163Z,8.40
2017-10-10T03:48:23.275Z,8.31
2017-10-10T03:50:52.371Z,8.30
2017-10-10T03:53:21.431Z,8.28
2017-10-10T03:55:50.465Z,8.28
2017-10-10T03:58:19.522Z,8.26
2017-10-10T04:00:48.573Z,8.26
2017-10-10T04:03:17.598Z,8.20
2017-10-10T04:05:46.626Z,8.18
2017-10-10T04:08:15.664Z,8.16
2017-10-10T04:10:44.696Z,8.23
2017-10-10T04:13:13.724Z,8.27
2017-10-10T04:15:43.697Z,8.28
2017-10-10T04:18:12.893Z,8.31
2017-10-10T04:20:41.925Z,8.39
2017-10-10T04:23:10.955Z,8.46
2017-10-10T04:25:39.991Z,8.43
2017-10-10T04:28:09.076Z,8.42
2017-10-10T04:30:39.139Z,8.46
2017-10-10T04:33:08.186Z,8.49
2017-10-10T04:35:37.223Z,8.47
2017-10-10T04:38:06.252Z,8.45
2017-10-10T04:40:35.289Z,8.48
2017-10-10T04:43:04.334Z,8.48
2017-10-10T04:45:33.398Z,8.53
2017-10-10T04:48:02.460Z,8.60
2017-10-10T04:50:31.494Z,8.61
2017-10-10T04:53:00.848Z,8.64
2017-10-10T04:55:31.936Z,8.69
2017-10-10T04:58:01.019Z,8.73
2017-10-10T05:00:30.104Z,8.76
2017-10-10T05:02:59.190Z,8.73
2017-10-10T05:05:28.315Z,8.70
2017-10-10T05:07:57.359Z,8.72
2017-10-10T05:10:26.495Z,8.73
2017-10-10T05:12:55.555Z,8.76
2017-10-10T05:15:27.296Z,8.81
2017-10-10T05:17:56.439Z,8.86
2017-10-10T05:20:27.751Z,8.86
2017-10-10T05:22:56.790Z,8.93
2017-10-10T05:25:25.896Z,8.89
2017-10-10T05:27:54.934Z,8.94
2017-10-10T05:30:23.984Z,8.93
2017-10-10T05:32:53.002Z,8.92
2017-10-10T05:35:22.034Z,8.95
2017-10-10T05:37:53.601Z,8.92
2017-10-10T05:40:22.623Z,8.90
2017-10-10T05:42:51.669Z,8.92
2017-10-10T05:45:20.711Z,8.94
2017-10-10T05:47:49.774Z,9.00
2017-10-10T05:50:19.020Z,9.03
2017-10-10T05:52:48.059Z,9.06
2017-10-10T05:55:17.097Z,9.12
2017-10-10T05:57:46.126Z,9.15
2017-10-10T06:00:15.171Z,9.18
2017-10-10T06:02:44.206Z,9.23
2017-10-10T06:05:13.253Z,9.21
2017-10-10T06:07:42.298Z,9.30
2017-10-10T06:10:11.340Z,9.37
2017-10-10T06:12:40.394Z,9.41
2017-10-10T06:15:09.412Z,9.48
2017-10-10T06:17:38.456Z,9.49
2017-10-10T06:20:07.628Z,9.54
2017-10-10T06:22:36.782Z,9.61
2017-10-10T06:25:05.980Z,9.69
2017-10-10T06:27:36.930Z,9.74
2017-10-10T06:30:05.978Z,9.83
2017-10-10T06:32:35.026Z,9.86
2017-10-10T06:35:04.075Z,9.92
2017-10-10T06:37:33.146Z,10.01
2017-10-10T06:40:02.203Z,10.11
2017-10-10T06:42:31.238Z,10.06
2017-10-10T06:45:00.318Z,10.09
2017-10-10T06:47:29.350Z,10.17
2017-10-10T06:49:58.444Z,10.32
2017-10-10T06:52:27.479Z,10.38
2017-10-10T06:54:56.536Z,10.49
2017-10-10T06:57:25.600Z,10.68
2017-10-10T06:59:54.660Z,10.77
2017-10-10T07:02:23.700Z,10.88
2017-10-10T07:04:52.761Z,10.99
2017-10-10T07:07:21.829Z,11.13
2017-10-10T07:09:50.873Z,11.20
2017-10-10T07:12:19.952Z,11.24
2017-10-10T07:14:49.011Z,11.34
2017-10-10T07:17:18.068Z,11.46
2017-10-10T07:19:47.147Z,11.57
2017-10-10T07:22:16.208Z,11.76
2017-10-10T07:24:45.258Z,11.87
2017-10-10T07:27:14.341Z,11.98
2017-10-10T07:29:43.402Z,11.99
2017-10-10T07:32:12.455Z,12.03
2017-10-10T07:34:41.511Z,11.84
2017-10-10T07:37:10.568Z,11.67
2017-10-10T07:39:39.613Z,11.83
2017-10-10T07:42:08.683Z,11.85
2017-10-10T07:44:38.184Z,11.88
2017-10-10T07:47:07.236Z,11.98
2017-10-10T07:49:36.318Z,12.09
2017-10-10T07:52:05.391Z,12.15
2017-10-10T07:54:37.062Z,12.31
2017-10-10T07:57:09.735Z,12.21
2017-10-10T07:59:39.758Z,12.01
2017-10-10T08:02:08.804Z,11.87
2017-10-10T08:04:37.861Z,11.89
2017-10-10T08:07:06.950Z,11.89
2017-10-10T08:09:35.951Z,11.90
2017-10-10T08:12:05.003Z,12.04
2017-10-10T08:14:34.054Z,12.21
2017-10-10T08:17:03.528Z,12.46
2017-10-10T08:19:32.579Z,12.63
2017-10-10T08:22:01.628Z,12.58
2017-10-10T08:24:30.679Z,12.71
2017-10-10T08:26:59.726Z,12.86
2017-10-10T08:29:28.782Z,12.90
2017-10-10T08:31:57.815Z,12.89
2017-10-10T08:34:26.864Z,12.83
2017-10-10T08:36:55.919Z,13.02
2017-10-10T08:39:24.968Z,12.93
2017-10-10T08:41:54.005Z,13.07
2017-10-10T08:44:23.057Z,13.04
2017-10-10T08:46:52.091Z,12.91
2017-10-10T08:49:21.140Z,13.25
2017-10-10T08:51:50.175Z,13.79
2017-10-10T08:54:19.239Z,14.67
2017-10-10T08:56:48.288Z,15.68
2017-10-10T08:59:17.329Z,15.68
2017-10-10T09:01:46.363Z,15.79
2017-10-10T09:04:15.443Z,15.64
2017-10-10T09:06:44.485Z,15.30
2017-10-10T09:09:13.522Z,15.37
2017-10-10T09:11:42.580Z,14.96
2017-10-10T09:14:11.635Z,15.15
2017-10-10T09:16:40.702Z,14.57
2017-10-10T09:21:32.219Z,14.25
2017-10-10T09:24:01.300Z,14.33
2017-10-10T09:26:30.748Z,14.49
2017-10-10T09:28:59.831Z,14.61
2017-10-10T09:31:29.281Z,15.10
2017-10-10T09:33:58.311Z,15.35
2017-10-10T09:36:27.352Z,15.17
2017-10-10T09:38:56.418Z,14.81
2017-10-10T09:41:25.477Z,14.36
2017-10-10T09:43:54.527Z,14.23
2017-10-10T09:46:23.547Z,13.92
2017-10-10T09:48:52.605Z,13.87
2017-10-10T09:51:21.887Z,13.68
2017-10-10T09:53:54.640Z,13.51
2017-10-10T09:56:23.691Z,13.26
2017-10-10T09:58:52.759Z,13.22
2017-10-10T10:01:21.797Z,13.18
2017-10-10T10:03:50.872Z,13.34
2017-10-10T10:06:19.991Z,13.31
2017-10-10T10:08:49.037Z,13.51
2017-10-10T10:11:18.091Z,13.63
2017-10-10T10:13:47.159Z,13.63
2017-10-10T10:16:16.220Z,13.80
2017-10-10T10:18:45.260Z,14.08
2017-10-10T10:21:14.335Z,14.21
2017-10-10T10:23:43.393Z,14.29
2017-10-10T10:26:12.456Z,14.44
2017-10-10T10:28:41.502Z,14.44
2017-10-10T10:31:10.754Z,14.54
2017-10-10T10:33:39.821Z,14.60
2017-10-10T10:36:08.864Z,14.79
2017-10-10T10:38:37.903Z,14.66
2017-10-10T10:41:06.951Z,14.78
2017-10-10T10:43:35.996Z,15.00
2017-10-10T10:46:05.031Z,15.05
2017-10-10T10:48:34.529Z,15.23
2017-10-10T10:51:03.597Z,15.32
2017-10-10T10:53:34.035Z,15.55
2017-10-10T10:56:03.083Z,15.68
2017-10-10T10:58:32.257Z,15.79
2017-10-10T11:01:01.384Z,16.08
2017-10-10T11:03:30.479Z,16.16
2017-10-10T11:05:59.526Z,16.38
2017-10-10T11:08:28.559Z,16.50
2017-10-10T11:10:57.603Z,16.43
2017-10-10T11:13:26.652Z,15.88
2017-10-10T11:15:55.709Z,16.24
2017-10-10T11:18:24.752Z,16.70
2017-10-10T11:20:53.798Z,16.56
2017-10-10T11:23:22.837Z,16.99
2017-10-10T11:25:51.887Z,17.05
2017-10-10T11:28:20.926Z,17.32
2017-10-10T11:30:49.979Z,17.25
2017-10-10T11:33:19.027Z,17.16
2017-10-10T11:35:48.090Z,16.44
2017-10-10T11:38:17.149Z,16.45
2017-10-10T11:40:46.194Z,16.25
2017-10-10T11:43:15.237Z,16.60
2017-10-10T11:45:44.288Z,17.59
2017-10-10T11:48:13.343Z,16.90
2017-10-10T11:50:43.372Z,15.95
2017-10-10T11:53:12.417Z,16.34
2017-10-10T11:55:41.490Z,16.78
2017-10-10T11:58:10.675Z,17.21
2017-10-10T12:00:39.736Z,17.04
2017-10-10T12:03:08.780Z,16.18
2017-10-10T12:05:37.843Z,15.99
2017-10-10T12:08:06.879Z,16.01
2017-10-10T12:10:35.923Z,16.14
2017-10-10T12:13:07.786Z,17.34
2017-10-10T12:15:36.816Z,18.52
2017-10-10T12:18:05.937Z,17.84
2017-10-10T12:20:34.995Z,18.14
2017-10-10T12:23:04.932Z,18.62
2017-10-10T12:25:34.003Z,18.27
2017-10-10T12:28:05.541Z,17.74
2017-10-10T12:30:34.603Z,17.46
2017-10-10T12:33:04.820Z,17.27
2017-10-10T12:35:33.852Z,16.98
2017-10-10T12:38:05.242Z,16.82
2017-10-10T12:40:34.267Z,16.39
2017-10-10T12:43:05.619Z,16.20
2017-10-10T12:45:34.656Z,16.44
2017-10-10T12:48:04.307Z,16.10
2017-10-10T12:50:33.351Z,15.92
2017-10-10T12:53:02.388Z,15.90
2017-10-10T12:55:31.459Z,15.58
2017-10-10T12:58:00.477Z,15.60
2017-10-10T13:00:29.511Z,15.49
2017-10-10T13:02:58.608Z,15.36
2017-10-10T13:05:32.568Z,15.40
2017-10-10T13:08:02.385Z,15.20
2017-10-10T13:10:31.437Z,15.08
2017-10-10T13:13:00.472Z,15.08
2017-10-10T13:15:29.519Z,14.95
2017-10-10T13:17:58.567Z,14.88
2017-10-10T13:20:27.621Z,14.70
2017-10-10T13:22:56.704Z,14.65
2017-10-10T13:25:25.732Z,14.56
2017-10-10T13:27:54.822Z,14.54
2017-10-10T13:30:23.876Z,14.50
2017-10-10T13:32:52.931Z,14.58
2017-10-10T13:35:21.981Z,14.65
2017-10-10T13:37:51.035Z,14.87
2017-10-10T13:40:20.075Z,14.95
2017-10-10T13:42:49.128Z,15.05
2017-10-10T13:45:18.172Z,15.04
2017-10-10T13:47:47.231Z,14.89
2017-10-10T13:50:16.275Z,14.94
2017-10-10T13:52:45.340Z,14.80
2017-10-10T13:55:14.410Z,14.79
2017-10-10T13:57:43.436Z,14.77
2017-10-10T14:00:12.517Z,14.89
2017-10-10T14:02:41.553Z,15.01
2017-10-10T14:05:10.583Z,15.13
2017-10-10T14:07:39.685Z,15.03
2017-10-10T14:10:08.753Z,14.93
2017-10-10T14:12:38.751Z,14.97
2017-10-10T14:15:07.805Z,14.92
2017-10-10T14:17:36.871Z,14.94
2017-10-10T14:20:06.014Z,14.93
2017-10-10T14:22:35.095Z,14.96
2017-10-10T14:25:04.307Z,14.95
2017-10-10T14:27:34.028Z,14.91
2017-10-10T14:30:03.126Z,14.91
2017-10-10T14:32:33.073Z,14.94
2017-10-10T14:35:02.127Z,14.79
2017-10-10T14:37:31.342Z,14.71
2017-10-10T14:40:00.413Z,14.64
2017-10-10T14:42:29.450Z,14.58
2017-10-10T14:44:58.492Z,14.61
2017-10-10T14:47:27.524Z,14.57
2017-10-10T14:49:56.575Z,14.46
2017-10-10T14:52:25.635Z,14.50
2017-10-10T14:54:54.729Z,14.33
2017-10-10T14:57:23.787Z,14.20
2017-10-10T14:59:52.980Z,14.22
2017-10-10T15:02:22.027Z,14.18
2017-10-10T15:04:51.086Z,14.12
2017-10-10T15:07:20.266Z,14.11
2017-10-10T15:09:49.291Z,13.95
2017-10-10T15:12:18.368Z,13.83
2017-10-10T15:14:47.461Z,13.79
2017-10-10T15:17:16.507Z,13.75
2017-10-10T15:19:45.596Z,13.78
2017-10-10T15:22:14.699Z,13.60
2017-10-10T15:24:43.757Z,13.60
2017-10-10T15:27:12.791Z,13.59
2017-10-10T15:29:41.919Z,13.54
2017-10-10T15:32:10.975Z,13.46
2017-10-10T15:34:40.019Z,13.41
2017-10-10T15:37:09.062Z,13.36
2017-10-10T15:39:38.112Z,13.26
2017-10-10T15:42:07.330Z,13.12
2017-10-10T15:44:39.006Z,13.11
2017-10-10T15:47:08.516Z,13.03
2017-10-10T15:49:37.633Z,12.94
2017-10-10T15:52:06.679Z,12.85
2017-10-10T15:54:35.736Z,12.76
2017-10-10T15:57:05.233Z,12.76
2017-10-10T15:59:34.568Z,12.71
2017-10-10T16:02:04.248Z,12.64
2017-10-10T16:04:33.294Z,12.60
2017-10-10T16:07:03.365Z,12.55
2017-10-10T16:09:32.388Z,12.50
2017-10-10T16:12:01.488Z,12.42
2017-10-10T16:14:30.502Z,12.32
2017-10-10T16:16:59.614Z,12.32
2017-10-10T16:19:28.674Z,12.32
2017-10-10T16:21:57.710Z,12.24
2017-10-10T16:24:26.764Z,12.20
2017-10-10T16:26:55.790Z,12.15
2017-10-10T16:29:24.877Z,12.12
2017-10-10T16:31:53.901Z,12.09
2017-10-10T16:34:23.083Z,12.07
2017-10-10T16:36:52.524Z,12.07
2017-10-10T16:39:21.576Z,12.09
2017-10-10T16:41:50.615Z,12.13
2017-10-10T16:44:19.658Z,12.15
2017-10-10T16:46:48.703Z,12.19
2017-10-10T16:49:17.782Z,12.20
2017-10-10T16:51:46.830Z,12.21
2017-10-10T16:54:15.875Z,12.19
2017-10-10T16:56:44.927Z,12.19
2017-10-10T16:59:13.970Z,12.17
2017-10-10T17:01:43.909Z,12.22
2017-10-10T17:04:12.979Z,12.25
2017-10-10T17:06:42.063Z,12.17
2017-10-10T17:09:12.091Z,12.13
2017-10-10T17:11:41.173Z,12.14
2017-10-10T17:14:10.204Z,12.14
2017-10-10T17:16:39.591Z,12.16
2017-10-10T17:19:08.609Z,12.11
2017-10-10T17:21:37.687Z,12.14
2017-10-10T17:24:06.718Z,12.09
2017-10-10T17:26:35.789Z,12.06
2017-10-10T17:29:05.981Z,12.13
2017-10-10T17:31:35.030Z,12.13
2017-10-10T17:34:04.902Z,12.15
2017-10-10T17:36:34.009Z,12.16
2017-10-10T17:39:03.060Z,12.19
2017-10-10T17:41:32.111Z,12.27
2017-10-10T17:44:02.278Z,12.25
2017-10-10T17:46:31.663Z,12.16
2017-10-10T17:49:00.832Z,12.10
2017-10-10T17:51:29.971Z,12.16
2017-10-10T17:53:58.993Z,12.10
2017-10-10T17:56:28.030Z,12.11
2017-10-10T17:58:57.144Z,12.15
2017-10-10T18:01:28.111Z,12.12
2017-10-10T18:03:57.299Z,12.06
2017-10-10T18:06:26.383Z,12.02
2017-10-10T18:08:55.446Z,11.91
2017-10-10T18:11:24.560Z,11.91
2017-10-10T18:13:55.481Z,11.91
2017-10-10T18:16:24.530Z,11.83
2017-10-10T18:18:53.587Z,11.80
2017-10-10T18:21:22.649Z,11.81
2017-10-10T18:23:51.702Z,11.84
2017-10-10T18:26:20.837Z,11.87
2017-10-10T18:28:49.926Z,11.86
2017-10-10T18:31:19.889Z,11.86
2017-10-10T18:33:48.941Z,11.92
2017-10-10T18:36:18.225Z,11.94
2017-10-10T18:38:48.294Z,11.82
2017-10-10T18:41:17.366Z,11.70
2017-10-10T18:43:47.989Z,11.60
2017-10-10T18:46:17.070Z,11.58
2017-10-10T18:48:46.157Z,11.55
2017-10-10T18:51:16.154Z,11.61
2017-10-10T18:53:45.204Z,11.65
2017-10-10T18:56:15.825Z,11.71
2017-10-10T18:58:44.879Z,11.72
2017-10-10T19:01:13.955Z,11.76
2017-10-10T19:03:43.543Z,11.80
2017-10-10T19:06:12.583Z,11.85
2017-10-10T19:08:41.780Z,11.87
2017-10-10T19:11:11.111Z,11.87
2017-10-10T19:13:40.308Z,11.91
2017-10-10T19:16:09.346Z,11.96
2017-10-10T19:18:38.444Z,11.98
2017-10-10T19:21:07.526Z,12.02
2017-10-10T19:23:37.508Z,12.00
2017-10-10T19:26:06.532Z,12.05
2017-10-10T19:28:35.613Z,12.03
2017-10-10T19:31:04.719Z,12.04
2017-10-10T19:33:34.876Z,12.01
2017-10-10T19:36:04.241Z,12.02
2017-10-10T19:38:33.332Z,12.02
2017-10-10T19:41:03.358Z,11.97
2017-10-10T19:43:33.410Z,11.89
2017-10-10T19:46:02.514Z,11.85
2017-10-10T19:48:31.611Z,11.78
2017-10-10T19:51:02.844Z,11.73
2017-10-10T19:53:31.958Z,11.64
2017-10-10T19:56:02.061Z,11.62
2017-10-10T19:58:31.107Z,11.63
2017-10-10T20:01:00.338Z,11.72
2017-10-10T20:03:29.606Z,11.79
2017-10-10T20:05:58.919Z,11.82
2017-10-10T20:08:28.041Z,11.86
2017-10-10T20:10:57.226Z,11.95
2017-10-10T20:13:28.176Z,12.01
2017-10-10T20:15:57.261Z,12.06
2017-10-10T20:18:26.642Z,12.07
2017-10-10T20:20:55.695Z,12.08
2017-10-10T20:23:25.734Z,12.09
2017-10-10T20:25:54.884Z,12.11
2017-10-10T20:28:23.941Z,12.13
2017-10-10T20:30:52.999Z,12.09
2017-10-10T20:33:24.094Z,12.07
2017-10-10T20:35:53.290Z,12.08
2017-10-10T20:38:22.392Z,12.06
2017-10-10T20:40:51.569Z,12.06
2017-10-10T20:43:21.826Z,12.02
2017-10-10T20:45:50.898Z,12.01
2017-10-10T20:48:19.942Z,11.98
2017-10-10T20:50:49.137Z,11.99
2017-10-10T20:53:18.227Z,11.94
2017-10-10T20:55:47.356Z,11.87
2017-10-10T20:58:16.411Z,11.76
2017-10-10T21:00:45.637Z,11.69
2017-10-10T21:03:14.701Z,11.68
2017-10-10T21:05:43.731Z,11.65
2017-10-10T21:08:12.799Z,11.61
2017-10-10T21:10:41.865Z,11.62
2017-10-10T21:13:10.911Z,11.59
2017-10-10T21:15:39.988Z,11.57
2017-10-10T21:18:09.020Z,11.52
2017-10-10T21:20:39.039Z,11.52
2017-10-10T21:23:08.080Z,11.53
2017-10-10T21:25:37.153Z,11.60
2017-10-10T21:28:06.219Z,11.61
2017-10-10T21:30:35.254Z,11.61
2017-10-10T21:33:04.318Z,11.60
2017-10-10T21:35:33.357Z,11.61
2017-10-10T21:38:03.414Z,11.59
2017-10-10T21:40:33.361Z,11.59
2017-10-10T21:43:02.429Z,11.60
2017-10-10T21:45:31.480Z,11.59
2017-10-10T21:48:01.448Z,11.49
2017-10-10T21:50:31.393Z,11.33
2017-10-10T21:53:00.448Z,11.07
2017-10-10T21:58:11.396Z,10.76
2017-10-10T22:00:40.451Z,10.68
2017-10-10T22:03:10.477Z,10.60
2017-10-10T22:05:39.530Z,10.50
2017-10-10T22:08:08.568Z,10.36
2017-10-10T22:10:37.602Z,10.22
2017-10-10T22:13:06.648Z,10.18
2017-10-10T22:15:37.615Z,10.17
2017-10-10T22:18:06.662Z,10.07
2017-10-10T22:20:35.712Z,9.95
2017-10-10T22:23:04.753Z,9.83
2017-10-10T22:25:33.762Z,9.71
2017-10-10T22:28:02.839Z,9.59
2017-10-10T22:30:32.009Z,9.52
2017-10-10T22:33:01.134Z,9.44
2017-10-10T22:35:30.203Z,9.43
2017-10-10T22:37:59.220Z,9.42
2017-10-10T22:40:29.230Z,9.43
2017-10-10T22:42:58.258Z,9.47
2017-10-10T22:45:27.328Z,9.50
2017-10-10T22:47:56.350Z,9.50
2017-10-10T22:50:26.350Z,9.50
2017-10-10T22:52:55.390Z,9.52
2017-10-10T22:55:24.431Z,9.61
2017-10-10T22:57:53.462Z,9.74
2017-10-10T23:00:22.490Z,9.80
2017-10-10T23:02:51.534Z,9.87
2017-10-10T23:05:20.594Z,9.91
2017-10-10T23:07:49.693Z,9.95
2017-10-10T23:10:18.732Z,9.96
2017-10-10T23:12:47.803Z,9.96
2017-10-10T23:15:17.861Z,9.94
2017-10-10T23:17:47.791Z,9.92
2017-10-10T23:20:16.828Z,9.94
2017-10-10T23:22:45.866Z,9.93
2017-10-10T23:25:14.980Z,9.88
2017-10-10T23:27:44.012Z,9.87
2017-10-10T23:30:13.185Z,9.82
2017-10-10T23:32:42.201Z,9.80
2017-10-10T23:35:11.246Z,9.75
2017-10-10T23:37:40.289Z,9.64
2017-10-10T23:40:09.322Z,9.53
2017-10-10T23:42:38.359Z,9.43
2017-10-10T23:45:07.526Z,9.26
2017-10-10T23:47:36.764Z,9.10
2017-10-10T23:50:05.782Z,8.94
2017-10-10T23:52:34.831Z,8.80
2017-10-10T23:55:03.866Z,8.71
2017-10-10T23:57:33.867Z,8.65
